createdAt,value
2023-06-28T00:00:05.039Z,4.22
2023-06-28T00:02:44.207Z,4.45
2023-06-28T00:05:12.066Z,4.63
2023-06-28T00:07:40.068Z,5.22
2023-06-28T00:10:07.897Z,5.22
2023-06-28T00:12:36.213Z,4.85
2023-06-28T00:15:03.847Z,4.03
2023-06-28T00:17:31.795Z,5.22
2023-06-28T00:20:08.582Z,5.53
2023-06-28T00:22:36.486Z,5.32
2023-06-28T00:25:06.019Z,5.35
2023-06-28T00:27:33.579Z,5.47
2023-06-28T00:30:01.318Z,5.28
2023-06-28T00:32:29.661Z,6.80
2023-06-28T00:34:57.043Z,5.57
2023-06-28T00:37:24.240Z,5.57
2023-06-28T00:39:51.444Z,6.63
2023-06-28T00:42:18.590Z,7.00
2023-06-28T00:44:45.795Z,6.43
2023-06-28T00:47:13.427Z,5.60
2023-06-28T00:49:41.494Z,6.07
2023-06-28T00:52:10.890Z,5.63
2023-06-28T00:54:39.172Z,5.72
2023-06-28T00:57:08.112Z,5.80
2023-06-28T00:59:36.341Z,5.50
2023-06-28T01:02:04.282Z,5.88
2023-06-28T01:04:31.529Z,5.65
2023-06-28T01:07:02.974Z,5.53
2023-06-28T01:09:34.275Z,6.47
2023-06-28T01:12:02.744Z,6.53
2023-06-28T01:14:30.185Z,7.40
2023-06-28T01:16:58.326Z,6.65
2023-06-28T01:19:33.004Z,6.53
2023-06-28T01:22:06.755Z,6.10
2023-06-28T01:24:34.151Z,6.60
2023-06-28T01:27:02.030Z,6.15
2023-06-28T01:29:30.227Z,7.68
2023-06-28T01:31:57.721Z,5.68
2023-06-28T01:34:28.986Z,5.22
2023-06-28T01:36:59.476Z,6.10
2023-06-28T01:39:27.637Z,6.95
2023-06-28T01:41:55.478Z,6.10
2023-06-28T01:44:24.079Z,6.70
2023-06-28T01:46:53.366Z,6.88
2023-06-28T01:49:21.077Z,6.90
2023-06-28T01:51:48.803Z,7.07
2023-06-28T01:54:17.133Z,6.40
2023-06-28T01:56:46.593Z,6.88
2023-06-28T01:59:13.885Z,6.45
2023-06-28T02:01:43.138Z,6.53
2023-06-28T02:04:10.374Z,6.70
2023-06-28T02:06:42.522Z,6.93
2023-06-28T02:09:10.849Z,5.95
2023-06-28T02:11:38.019Z,7.63
2023-06-28T02:14:05.198Z,7.07
2023-06-28T02:16:33.230Z,6.60
2023-06-28T02:19:03.750Z,7.05
2023-06-28T02:21:30.933Z,6.90
2023-06-28T02:23:58.053Z,6.80
2023-06-28T02:26:25.231Z,6.75
2023-06-28T02:28:52.522Z,7.40
2023-06-28T02:31:19.728Z,6.85
2023-06-28T02:33:47.016Z,7.10
2023-06-28T02:36:14.596Z,6.55
2023-06-28T02:38:43.356Z,6.45
2023-06-28T02:41:11.548Z,7.75
2023-06-28T02:43:38.748Z,8.35
2023-06-28T02:46:06.080Z,8.38
2023-06-28T02:48:34.325Z,7.57
2023-06-28T02:51:01.461Z,9.07
2023-06-28T02:53:28.865Z,7.72
2023-06-28T02:55:56.075Z,7.22
2023-06-28T02:58:43.875Z,8.05
2023-06-28T03:01:11.314Z,6.88
2023-06-28T03:03:38.944Z,7.80
2023-06-28T03:06:06.800Z,7.78
2023-06-28T03:08:34.592Z,9.15
2023-06-28T03:11:02.730Z,8.55
2023-06-28T03:13:29.922Z,9.73
2023-06-28T03:15:57.207Z,8.55
2023-06-28T03:18:25.411Z,8.40
2023-06-28T03:20:52.892Z,8.18
2023-06-28T03:23:20.432Z,10.35
2023-06-28T03:25:47.755Z,8.90
2023-06-28T03:28:17.362Z,9.95
2023-06-28T03:30:44.898Z,9.48
2023-06-28T03:33:12.178Z,9.48
2023-06-28T03:35:39.384Z,10.73
2023-06-28T03:38:06.630Z,9.40
2023-06-28T03:40:33.932Z,11.07
2023-06-28T03:43:01.214Z,10.32
2023-06-28T03:45:30.184Z,9.38
2023-06-28T03:47:57.973Z,10.57
2023-06-28T03:50:25.375Z,11.05
2023-06-28T03:52:52.667Z,11.45
2023-06-28T03:55:19.899Z,11.27
2023-06-28T03:57:47.140Z,10.15
2023-06-28T04:00:16.464Z,10.18
2023-06-28T04:02:45.763Z,10.50
2023-06-28T04:05:13.018Z,9.85
2023-06-28T04:07:40.537Z,9.98
2023-06-28T04:10:08.360Z,10.23
2023-06-28T04:12:35.663Z,9.48
2023-06-28T04:15:04.182Z,10.13
2023-06-28T04:17:31.409Z,10.13
2023-06-28T04:19:59.017Z,10.82
2023-06-28T04:22:26.205Z,10.10
2023-06-28T04:24:53.348Z,8.98
2023-06-28T04:27:20.495Z,10.18
2023-06-28T04:29:47.857Z,9.65
2023-06-28T04:32:26.161Z,8.85
2023-06-28T04:35:00.071Z,8.75
2023-06-28T04:37:32.767Z,9.05
2023-06-28T04:40:05.338Z,9.23
2023-06-28T04:42:32.636Z,9.65
2023-06-28T04:45:02.422Z,8.90
2023-06-28T04:47:29.737Z,7.65
2023-06-28T04:49:56.967Z,8.80
2023-06-28T04:52:24.696Z,9.25
2023-06-28T04:54:52.038Z,9.13
2023-06-28T04:57:22.062Z,8.20
2023-06-28T04:59:49.473Z,8.85
2023-06-28T05:02:17.138Z,8.93
2023-06-28T05:04:44.943Z,9.48
2023-06-28T05:07:12.375Z,9.30
2023-06-28T05:09:42.363Z,10.65
2023-06-28T05:12:09.669Z,10.27
2023-06-28T05:14:36.805Z,9.95
2023-06-28T05:17:04.310Z,10.52
2023-06-28T05:19:31.616Z,10.63
2023-06-28T05:21:58.777Z,9.88
2023-06-28T05:24:25.970Z,9.55
2023-06-28T05:26:53.298Z,9.43
2023-06-28T05:29:20.682Z,8.82
2023-06-28T05:31:48.018Z,9.27
2023-06-28T05:34:15.187Z,9.85
2023-06-28T05:36:42.781Z,11.25
2023-06-28T05:39:12.713Z,10.63
2023-06-28T05:41:41.400Z,10.02
2023-06-28T05:44:08.716Z,10.35
2023-06-28T05:46:36.044Z,10.65
2023-06-28T05:49:09.156Z,9.98
2023-06-28T05:51:37.872Z,10.40
2023-06-28T05:54:05.411Z,11.07
2023-06-28T05:56:32.891Z,10.85
2023-06-28T05:59:00.132Z,10.20
2023-06-28T06:01:27.365Z,10.52
2023-06-28T06:03:54.742Z,10.63
2023-06-28T06:06:21.951Z,10.90
2023-06-28T06:08:49.191Z,9.70
2023-06-28T06:11:16.423Z,11.55
2023-06-28T06:13:43.594Z,9.98
2023-06-28T06:16:11.077Z,11.98
2023-06-28T06:18:41.544Z,11.27
2023-06-28T06:21:08.931Z,11.90
2023-06-28T06:23:36.132Z,10.98
2023-06-28T06:26:03.405Z,9.95
2023-06-28T06:28:30.586Z,10.68
2023-06-28T06:30:57.795Z,10.88
2023-06-28T06:33:25.256Z,10.95
2023-06-28T06:35:55.048Z,12.10
2023-06-28T06:38:23.755Z,11.75
2023-06-28T06:40:51.056Z,9.65
2023-06-28T06:43:18.269Z,11.32
2023-06-28T06:45:45.492Z,10.45
2023-06-28T06:48:13.040Z,10.93
2023-06-28T06:50:40.450Z,11.52
2023-06-28T06:53:09.642Z,11.38
2023-06-28T06:55:36.786Z,9.85
2023-06-28T06:58:04.096Z,11.13
2023-06-28T07:00:31.358Z,11.38
2023-06-28T07:02:58.650Z,10.63
2023-06-28T07:05:26.004Z,9.98
2023-06-28T07:07:55.783Z,10.07
2023-06-28T07:10:23.201Z,11.25
2023-06-28T07:12:50.599Z,9.98
2023-06-28T07:15:18.192Z,10.73
2023-06-28T07:17:45.494Z,10.25
2023-06-28T07:20:12.913Z,10.65
2023-06-28T07:22:40.488Z,9.68
2023-06-28T07:25:08.118Z,9.65
2023-06-28T07:27:35.761Z,11.30
2023-06-28T07:30:03.501Z,9.90
2023-06-28T07:32:32.402Z,10.52
2023-06-28T07:34:59.632Z,9.60
2023-06-28T07:37:26.966Z,9.25
2023-06-28T07:39:54.148Z,9.82
2023-06-28T07:42:21.569Z,9.18
2023-06-28T07:44:48.836Z,9.75
2023-06-28T07:47:16.259Z,10.63
2023-06-28T07:49:43.776Z,9.70
2023-06-28T07:52:12.186Z,9.88
2023-06-28T07:54:39.343Z,10.38
2023-06-28T07:57:06.769Z,8.27
2023-06-28T07:59:33.954Z,9.20
2023-06-28T08:02:01.159Z,9.38
2023-06-28T08:04:29.252Z,9.80
2023-06-28T08:06:56.461Z,9.05
2023-06-28T08:09:23.868Z,9.60
2023-06-28T08:11:51.205Z,9.63
2023-06-28T08:14:18.383Z,11.27
2023-06-28T08:16:46.771Z,9.63
2023-06-28T08:19:15.453Z,8.88
2023-06-28T08:21:42.608Z,9.75
2023-06-28T08:24:09.871Z,9.00
2023-06-28T08:26:37.518Z,9.75
2023-06-28T08:29:04.895Z,8.85
2023-06-28T08:31:32.251Z,9.80
2023-06-28T08:33:59.692Z,8.70
2023-06-28T08:36:27.152Z,8.55
2023-06-28T08:38:54.329Z,10.80
2023-06-28T08:41:22.169Z,9.18
2023-06-28T08:43:54.357Z,9.07
2023-06-28T08:48:50.721Z,8.32
2023-06-28T08:51:17.921Z,7.60
2023-06-28T08:53:49.311Z,8.10
2023-06-28T08:56:17.088Z,8.03
2023-06-28T08:58:46.041Z,8.93
2023-06-28T09:01:16.386Z,9.52
2023-06-28T09:03:44.704Z,7.78
2023-06-28T09:06:12.302Z,8.30
2023-06-28T09:08:40.515Z,8.27
2023-06-28T09:11:08.241Z,7.78
2023-06-28T09:13:35.842Z,8.60
2023-06-28T09:16:03.457Z,7.82
2023-06-28T09:18:30.571Z,7.70
2023-06-28T09:20:58.035Z,8.10
2023-06-28T09:23:32.558Z,8.75
2023-06-28T09:26:00.081Z,8.65
2023-06-28T09:28:35.775Z,9.35
2023-06-28T09:31:07.591Z,8.25
2023-06-28T09:33:35.286Z,9.75
2023-06-28T09:36:06.134Z,8.82
2023-06-28T09:38:34.810Z,9.70
2023-06-28T09:41:03.566Z,9.60
2023-06-28T09:43:35.567Z,8.75
2023-06-28T09:46:16.974Z,8.52
2023-06-28T09:48:52.376Z,8.00
2023-06-28T09:51:20.367Z,10.32
2023-06-28T09:53:54.987Z,8.50
2023-06-28T09:56:37.116Z,9.25
2023-06-28T09:59:08.303Z,8.07
2023-06-28T10:01:43.009Z,8.13
2023-06-28T10:04:13.485Z,9.25
2023-06-28T10:06:44.581Z,8.65
2023-06-28T10:09:16.478Z,8.02
2023-06-28T10:11:47.398Z,7.53
2023-06-28T10:14:17.782Z,8.30
2023-06-28T10:16:46.629Z,8.40
2023-06-28T10:19:13.978Z,6.75
2023-06-28T10:21:42.370Z,8.43
2023-06-28T10:24:11.215Z,7.47
2023-06-28T10:26:39.024Z,7.32
2023-06-28T10:29:06.911Z,8.65
2023-06-28T10:31:34.483Z,8.40
2023-06-28T10:34:02.310Z,7.10
2023-06-28T10:36:31.393Z,7.03
2023-06-28T10:38:58.774Z,6.93
2023-06-28T10:41:26.912Z,6.68
2023-06-28T10:44:08.075Z,8.40
2023-06-28T10:46:36.891Z,8.88
2023-06-28T10:49:07.306Z,8.07
2023-06-28T10:51:37.688Z,8.48
2023-06-28T10:54:09.537Z,7.97
2023-06-28T10:56:38.794Z,7.47
2023-06-28T10:59:07.815Z,9.13
2023-06-28T11:01:54.950Z,7.22
2023-06-28T11:04:26.719Z,7.60
2023-06-28T11:07:09.065Z,7.13
2023-06-28T11:12:09.090Z,6.80
2023-06-28T11:14:36.595Z,7.28
2023-06-28T11:17:08.338Z,7.13
2023-06-28T11:19:35.543Z,7.75
2023-06-28T11:22:04.242Z,7.82
2023-06-28T11:24:37.058Z,6.00
2023-06-28T11:27:12.693Z,7.75
2023-06-28T11:30:00.595Z,7.53
2023-06-28T11:32:34.911Z,8.60
2023-06-28T11:35:03.491Z,7.47
2023-06-28T11:37:32.172Z,7.18
2023-06-28T11:40:04.285Z,6.95
2023-06-28T11:42:31.572Z,7.40
2023-06-28T11:44:58.831Z,8.32
2023-06-28T11:47:28.682Z,7.57
2023-06-28T11:49:56.700Z,8.10
2023-06-28T11:52:25.506Z,7.68
2023-06-28T11:54:53.360Z,6.68
2023-06-28T11:57:20.613Z,6.85
2023-06-28T11:59:51.998Z,7.50
2023-06-28T12:02:19.157Z,7.80
2023-06-28T12:05:02.103Z,8.02
2023-06-28T12:07:29.640Z,8.80
2023-06-28T12:09:58.408Z,6.75
2023-06-28T12:12:36.194Z,6.88
2023-06-28T12:15:04.560Z,7.55
2023-06-28T12:17:40.190Z,7.35
2023-06-28T12:20:09.008Z,7.07
2023-06-28T12:22:44.522Z,8.27
2023-06-28T12:25:13.247Z,7.70
2023-06-28T12:27:40.903Z,8.43
2023-06-28T12:30:13.575Z,8.48
2023-06-28T12:32:46.038Z,8.40
2023-06-28T12:35:24.503Z,8.82
2023-06-28T12:37:58.777Z,8.57
2023-06-28T12:40:30.959Z,8.30
2023-06-28T12:45:45.133Z,7.43
2023-06-28T12:48:17.620Z,8.93
2023-06-28T12:50:48.859Z,8.38
2023-06-28T12:53:16.895Z,7.05
2023-06-28T12:55:44.346Z,7.90
2023-06-28T12:58:12.322Z,8.05
2023-06-28T13:00:44.287Z,8.82
2023-06-28T13:03:14.271Z,9.43
2023-06-28T13:05:42.311Z,9.60
2023-06-28T13:08:11.635Z,8.63
2023-06-28T13:10:38.996Z,7.93
2023-06-28T13:13:06.199Z,7.93
2023-06-28T13:15:33.413Z,9.48
2023-06-28T13:18:00.698Z,8.80
2023-06-28T13:20:28.047Z,9.48
2023-06-28T13:22:55.569Z,8.00
2023-06-28T13:25:23.748Z,8.30
2023-06-28T13:27:51.010Z,8.75
2023-06-28T13:30:18.376Z,8.23
2023-06-28T13:32:45.633Z,9.10
2023-06-28T13:35:12.882Z,9.32
2023-06-28T13:37:40.084Z,7.72
2023-06-28T13:40:08.232Z,10.23
2023-06-28T13:42:35.475Z,9.52
2023-06-28T13:45:02.620Z,7.93
2023-06-28T13:47:30.004Z,9.68
2023-06-28T13:49:57.612Z,9.32
2023-06-28T13:52:24.780Z,7.45
2023-06-28T13:54:52.277Z,8.95
2023-06-28T13:57:20.492Z,10.18
2023-06-28T13:59:47.821Z,8.38
2023-06-28T14:02:15.116Z,10.10
2023-06-28T14:04:42.362Z,9.15
2023-06-28T14:07:09.892Z,11.18
2023-06-28T14:09:37.343Z,10.23
2023-06-28T14:12:04.935Z,11.43
2023-06-28T14:14:32.169Z,11.48
2023-06-28T14:17:00.524Z,9.93
2023-06-28T14:19:28.062Z,11.30
2023-06-28T14:21:55.341Z,11.13
2023-06-28T14:24:22.476Z,10.13
2023-06-28T14:26:53.480Z,9.15
2023-06-28T14:29:21.006Z,11.30
2023-06-28T14:31:48.200Z,10.60
2023-06-28T14:34:15.346Z,11.60
2023-06-28T14:36:42.483Z,10.23
2023-06-28T14:39:09.921Z,10.63
2023-06-28T14:41:37.128Z,10.60
2023-06-28T14:44:07.465Z,12.77
2023-06-28T14:46:34.874Z,13.35
2023-06-28T14:49:03.232Z,13.27
2023-06-28T14:51:30.410Z,11.65
2023-06-28T14:54:00.167Z,12.60
2023-06-28T14:56:28.301Z,12.45
2023-06-28T14:58:55.621Z,11.85
2023-06-28T15:01:22.841Z,11.27
2023-06-28T15:03:50.027Z,12.23
2023-06-28T15:06:17.435Z,12.73
2023-06-28T15:08:44.618Z,10.90
2023-06-28T15:11:11.974Z,11.90
2023-06-28T15:13:39.335Z,12.70
2023-06-28T15:16:06.752Z,12.40
2023-06-28T15:18:34.077Z,11.52
2023-06-28T15:21:01.320Z,11.25
2023-06-28T15:23:28.612Z,12.20
2023-06-28T15:25:56.050Z,13.20
2023-06-28T15:28:23.288Z,11.88
2023-06-28T15:30:50.513Z,11.98
2023-06-28T15:33:17.795Z,11.75
2023-06-28T15:35:45.315Z,12.25
2023-06-28T15:38:12.604Z,12.07
2023-06-28T15:40:40.166Z,12.68
2023-06-28T15:43:07.458Z,11.27
2023-06-28T15:45:34.608Z,12.27
2023-06-28T15:48:01.861Z,12.43
2023-06-28T15:50:29.120Z,11.95
2023-06-28T15:52:56.323Z,11.77
2023-06-28T15:55:28.460Z,13.57
2023-06-28T15:57:55.820Z,11.55
2023-06-28T16:00:23.364Z,12.00
2023-06-28T16:02:53.884Z,11.43
2023-06-28T16:05:22.565Z,12.07
2023-06-28T16:07:51.987Z,12.40
2023-06-28T16:10:22.891Z,12.30
2023-06-28T16:12:51.441Z,13.13
2023-06-28T16:15:18.605Z,12.68
2023-06-28T16:17:45.824Z,12.98
2023-06-28T16:20:13.132Z,11.48
2023-06-28T16:22:40.441Z,13.05
2023-06-28T16:25:08.113Z,11.90
2023-06-28T16:27:35.308Z,13.65
2023-06-28T16:30:02.749Z,13.73
2023-06-28T16:32:31.974Z,13.32
2023-06-28T16:34:59.482Z,14.18
2023-06-28T16:37:26.706Z,13.07
2023-06-28T16:39:54.010Z,11.75
2023-06-28T16:42:21.239Z,12.10
2023-06-28T16:44:48.382Z,12.68
2023-06-28T16:47:15.605Z,15.18
2023-06-28T16:49:42.985Z,13.65
2023-06-28T16:52:10.606Z,13.70
2023-06-28T16:54:37.809Z,13.75
2023-06-28T16:57:05.395Z,12.63
2023-06-28T16:59:34.478Z,13.10
2023-06-28T17:02:01.651Z,12.65
2023-06-28T17:04:28.889Z,12.10
2023-06-28T17:06:56.127Z,11.60
2023-06-28T17:09:23.785Z,11.93
2023-06-28T17:11:51.157Z,10.88
2023-06-28T17:14:18.337Z,13.13
2023-06-28T17:16:45.566Z,12.95
2023-06-28T17:19:12.770Z,12.95
2023-06-28T17:21:39.909Z,12.73
2023-06-28T17:24:07.721Z,11.75
2023-06-28T17:26:35.185Z,10.60
2023-06-28T17:29:03.396Z,12.50
2023-06-28T17:31:30.743Z,11.85
2023-06-28T17:33:57.970Z,12.57
2023-06-28T17:36:26.816Z,12.88
2023-06-28T17:38:54.040Z,13.07
2023-06-28T17:41:21.228Z,13.48
2023-06-28T17:43:48.394Z,11.73
2023-06-28T17:46:15.472Z,11.95
2023-06-28T17:48:42.668Z,13.32
2023-06-28T17:51:09.901Z,12.45
2023-06-28T17:53:37.593Z,11.50
2023-06-28T17:56:05.336Z,11.65
2023-06-28T17:58:32.586Z,11.23
2023-06-28T18:00:59.772Z,11.93
2023-06-28T18:03:26.963Z,11.57
2023-06-28T18:05:54.192Z,11.25
2023-06-28T18:08:21.567Z,13.73
2023-06-28T18:10:48.944Z,14.13
2023-06-28T18:13:16.169Z,11.25
2023-06-28T18:15:43.298Z,11.65
2023-06-28T18:18:36.360Z,12.10
2023-06-28T18:21:42.745Z,10.20
2023-06-28T18:24:33.359Z,9.90
2023-06-28T18:27:13.177Z,12.00
2023-06-28T18:29:43.191Z,10.68
2023-06-28T18:32:16.060Z,10.63
2023-06-28T18:35:13.894Z,11.20
2023-06-28T18:38:00.107Z,11.90
2023-06-28T18:40:40.683Z,11.13
2023-06-28T18:43:09.733Z,10.90
2023-06-28T18:45:37.014Z,10.48
2023-06-28T18:48:04.573Z,9.93
2023-06-28T18:50:31.987Z,10.02
2023-06-28T18:52:59.156Z,10.68
2023-06-28T18:55:26.291Z,11.25
2023-06-28T18:57:56.382Z,10.23
2023-06-28T19:00:24.496Z,10.82
2023-06-28T19:02:51.915Z,11.80
2023-06-28T19:05:19.274Z,10.60
2023-06-28T19:07:46.938Z,11.45
2023-06-28T19:10:14.385Z,10.32
2023-06-28T19:12:41.550Z,10.93
2023-06-28T19:15:09.386Z,10.45
2023-06-28T19:17:36.723Z,11.00
2023-06-28T19:20:04.224Z,12.20
2023-06-28T19:22:31.478Z,11.05
2023-06-28T19:24:58.621Z,10.85
2023-06-28T19:27:25.871Z,12.00
2023-06-28T19:29:53.261Z,10.98
2023-06-28T19:32:20.588Z,10.30
2023-06-28T19:34:47.820Z,12.90
2023-06-28T19:37:14.991Z,12.10
2023-06-28T19:39:42.332Z,12.00
2023-06-28T19:42:09.806Z,13.02
2023-06-28T19:44:37.055Z,11.50
2023-06-28T19:47:04.609Z,10.82
2023-06-28T19:49:31.854Z,11.82
2023-06-28T19:52:00.370Z,12.68
2023-06-28T19:54:28.113Z,11.75
2023-06-28T19:56:55.354Z,11.77
2023-06-28T19:59:23.121Z,11.27
2023-06-28T20:01:50.940Z,11.32
2023-06-28T20:04:18.324Z,11.45
2023-06-28T20:06:45.624Z,12.82
2023-06-28T20:09:12.986Z,11.30
2023-06-28T20:11:40.376Z,10.93
2023-06-28T20:14:08.212Z,9.68
2023-06-28T20:16:35.507Z,11.48
2023-06-28T20:19:02.918Z,11.73
2023-06-28T20:21:30.814Z,11.93
2023-06-28T20:23:58.624Z,11.75
2023-06-28T20:26:25.930Z,11.43
2023-06-28T20:28:53.661Z,12.35
2023-06-28T20:31:20.886Z,11.27
2023-06-28T20:33:48.497Z,10.50
2023-06-28T20:36:15.862Z,11.25
2023-06-28T20:38:43.074Z,10.27
2023-06-28T20:41:10.500Z,11.13
2023-06-28T20:43:38.621Z,11.52
2023-06-28T20:46:05.882Z,10.63
2023-06-28T20:48:33.899Z,10.35
2023-06-28T20:51:01.635Z,11.07
2023-06-28T20:53:30.082Z,10.82
2023-06-28T20:55:57.246Z,12.35
2023-06-28T20:58:24.484Z,11.25
2023-06-28T21:00:51.689Z,10.55
2023-06-28T21:03:18.983Z,11.80
2023-06-28T21:05:46.425Z,12.25
2023-06-28T21:08:13.618Z,10.82
2023-06-28T21:10:41.237Z,11.57
2023-06-28T21:13:08.576Z,9.38
2023-06-28T21:15:35.906Z,11.13
2023-06-28T21:18:03.342Z,11.70
2023-06-28T21:20:30.643Z,10.68
2023-06-28T21:22:57.811Z,9.68
2023-06-28T21:25:25.026Z,9.70
2023-06-28T21:27:52.204Z,9.60
2023-06-28T21:30:19.863Z,10.13
2023-06-28T21:32:48.690Z,8.95
2023-06-28T21:35:17.539Z,11.63
2023-06-28T21:37:44.800Z,9.88
2023-06-28T21:40:12.202Z,9.73
2023-06-28T21:42:39.475Z,11.13
2023-06-28T21:45:07.276Z,10.50
2023-06-28T21:47:34.682Z,9.73
2023-06-28T21:50:01.998Z,9.90
2023-06-28T21:52:29.540Z,10.30
2023-06-28T21:54:56.744Z,10.52
2023-06-28T21:57:24.030Z,9.82
2023-06-28T21:59:51.734Z,11.45
2023-06-28T22:02:19.222Z,10.13
2023-06-28T22:04:46.523Z,9.95
2023-06-28T22:07:13.884Z,11.38
2023-06-28T22:09:41.074Z,10.05
2023-06-28T22:12:08.999Z,9.43
2023-06-28T22:14:43.465Z,9.52
2023-06-28T22:17:13.347Z,9.80
2023-06-28T22:19:40.955Z,10.05
2023-06-28T22:22:09.084Z,10.95
2023-06-28T22:24:36.250Z,9.75
2023-06-28T22:27:04.313Z,10.77
2023-06-28T22:29:31.522Z,9.05
2023-06-28T22:31:58.730Z,11.10
2023-06-28T22:34:25.916Z,10.32
2023-06-28T22:36:53.129Z,10.55
2023-06-28T22:39:20.609Z,9.95
2023-06-28T22:41:47.765Z,9.38
2023-06-28T22:44:15.036Z,11.32
2023-06-28T22:46:42.328Z,9.65
2023-06-28T22:49:09.838Z,10.40
2023-06-28T22:51:41.188Z,10.30
2023-06-28T22:54:09.246Z,10.83
2023-06-28T22:56:37.475Z,9.23
2023-06-28T22:59:05.365Z,9.45
2023-06-28T23:01:33.360Z,11.40
2023-06-28T23:04:00.643Z,10.10
2023-06-28T23:06:27.854Z,9.18
2023-06-28T23:08:59.284Z,9.25
2023-06-28T23:11:27.962Z,9.10
2023-06-28T23:13:56.203Z,8.68
2023-06-28T23:16:26.647Z,10.77
2023-06-28T23:19:01.700Z,9.50
2023-06-28T23:21:34.853Z,9.82
2023-06-28T23:24:06.077Z,9.30
2023-06-28T23:26:33.499Z,9.47
2023-06-28T23:29:00.969Z,8.80
2023-06-28T23:31:28.242Z,9.70
2023-06-28T23:33:55.786Z,9.18
2023-06-28T23:36:23.119Z,9.48
2023-06-28T23:38:54.325Z,9.80
2023-06-28T23:41:22.624Z,9.15
2023-06-28T23:43:49.829Z,7.85
2023-06-28T23:46:17.951Z,9.48
2023-06-28T23:48:45.361Z,9.35
2023-06-28T23:51:13.202Z,9.23
2023-06-28T23:53:40.624Z,8.98
2023-06-28T23:56:11.951Z,8.77
2023-06-28T23:58:40.425Z,9.40
